sensor_id;sensor_type;location;lat;lon;timestamp;temperature;humidity
42663;DHT22;44330;51.360;6.686;2023-07-30T00:01:36;17.10;47.70
42663;DHT22;44330;51.360;6.686;2023-07-30T00:04:01;17.00;53.80
42663;DHT22;44330;51.360;6.686;2023-07-30T00:06:27;17.00;58.30
42663;DHT22;44330;51.360;6.686;2023-07-30T00:08:52;16.90;58.80
42663;DHT22;44330;51.360;6.686;2023-07-30T00:11:18;16.90;63.90
42663;DHT22;44330;51.360;6.686;2023-07-30T00:13:43;16.90;64.70
42663;DHT22;44330;51.360;6.686;2023-07-30T00:16:09;16.80;66.60
42663;DHT22;44330;51.360;6.686;2023-07-30T00:18:34;16.80;68.40
42663;DHT22;44330;51.360;6.686;2023-07-30T00:21:00;16.70;71.50
42663;DHT22;44330;51.360;6.686;2023-07-30T00:23:26;16.70;71.90
42663;DHT22;44330;51.360;6.686;2023-07-30T00:25:51;16.80;73.80
42663;DHT22;44330;51.360;6.686;2023-07-30T00:28:17;16.70;74.60
42663;DHT22;44330;51.360;6.686;2023-07-30T00:30:42;16.70;75.40
42663;DHT22;44330;51.360;6.686;2023-07-30T00:33:08;16.70;75.50
42663;DHT22;44330;51.360;6.686;2023-07-30T00:35:33;16.80;73.30
42663;DHT22;44330;51.360;6.686;2023-07-30T00:37:59;16.80;71.90
42663;DHT22;44330;51.360;6.686;2023-07-30T00:40:25;16.80;70.40
42663;DHT22;44330;51.360;6.686;2023-07-30T00:42:51;16.90;70.60
42663;DHT22;44330;51.360;6.686;2023-07-30T00:45:17;16.70;70.00
42663;DHT22;44330;51.360;6.686;2023-07-30T00:47:42;16.60;71.00
42663;DHT22;44330;51.360;6.686;2023-07-30T00:50:09;16.50;71.50
42663;DHT22;44330;51.360;6.686;2023-07-30T00:52:36;16.50;71.90
42663;DHT22;44330;51.360;6.686;2023-07-30T00:55:03;16.40;71.00
42663;DHT22;44330;51.360;6.686;2023-07-30T00:57:28;16.40;70.50
42663;DHT22;44330;51.360;6.686;2023-07-30T00:59:55;16.40;71.50
42663;DHT22;44330;51.360;6.686;2023-07-30T01:02:21;16.30;72.20
42663;DHT22;44330;51.360;6.686;2023-07-30T01:04:47;16.20;73.00
42663;DHT22;44330;51.360;6.686;2023-07-30T01:07:13;16.10;73.50
42663;DHT22;44330;51.360;6.686;2023-07-30T01:09:39;16.10;74.10
42663;DHT22;44330;51.360;6.686;2023-07-30T01:12:05;16.00;74.50
42663;DHT22;44330;51.360;6.686;2023-07-30T01:14:32;16.00;75.10
42663;DHT22;44330;51.360;6.686;2023-07-30T01:16:58;15.90;75.10
42663;DHT22;44330;51.360;6.686;2023-07-30T01:19:24;15.90;75.90
42663;DHT22;44330;51.360;6.686;2023-07-30T01:21:50;15.80;76.20
42663;DHT22;44330;51.360;6.686;2023-07-30T01:24:15;15.80;76.80
42663;DHT22;44330;51.360;6.686;2023-07-30T01:26:46;15.70;77.30
42663;DHT22;44330;51.360;6.686;2023-07-30T01:29:22;15.60;77.60
42663;DHT22;44330;51.360;6.686;2023-07-30T01:31:56;15.60;78.10
42663;DHT22;44330;51.360;6.686;2023-07-30T01:34:24;15.60;78.60
42663;DHT22;44330;51.360;6.686;2023-07-30T01:36:53;15.60;79.10
42663;DHT22;44330;51.360;6.686;2023-07-30T01:39:19;15.70;78.60
42663;DHT22;44330;51.360;6.686;2023-07-30T01:41:45;15.60;78.50
42663;DHT22;44330;51.360;6.686;2023-07-30T01:44:11;15.60;79.60
42663;DHT22;44330;51.360;6.686;2023-07-30T01:46:36;15.50;79.90
42663;DHT22;44330;51.360;6.686;2023-07-30T01:49:02;15.50;79.90
42663;DHT22;44330;51.360;6.686;2023-07-30T01:51:27;15.50;80.30
42663;DHT22;44330;51.360;6.686;2023-07-30T01:53:53;15.60;79.80
42663;DHT22;44330;51.360;6.686;2023-07-30T01:56:18;15.50;79.70
42663;DHT22;44330;51.360;6.686;2023-07-30T01:58:44;15.50;79.80
42663;DHT22;44330;51.360;6.686;2023-07-30T02:01:10;15.60;79.90
42663;DHT22;44330;51.360;6.686;2023-07-30T02:03:35;15.50;80.10
42663;DHT22;44330;51.360;6.686;2023-07-30T02:06:01;15.40;79.90
42663;DHT22;44330;51.360;6.686;2023-07-30T02:08:26;15.40;79.60
42663;DHT22;44330;51.360;6.686;2023-07-30T02:10:59;15.40;80.10
42663;DHT22;44330;51.360;6.686;2023-07-30T02:13:25;15.40;80.60
42663;DHT22;44330;51.360;6.686;2023-07-30T02:15:51;15.40;80.60
42663;DHT22;44330;51.360;6.686;2023-07-30T02:18:17;15.30;80.80
42663;DHT22;44330;51.360;6.686;2023-07-30T02:20:42;15.30;81.50
42663;DHT22;44330;51.360;6.686;2023-07-30T02:23:08;15.40;80.30
42663;DHT22;44330;51.360;6.686;2023-07-30T02:25:34;15.40;79.20
42663;DHT22;44330;51.360;6.686;2023-07-30T02:28:00;15.40;79.10
42663;DHT22;44330;51.360;6.686;2023-07-30T02:30:27;15.40;79.90
42663;DHT22;44330;51.360;6.686;2023-07-30T02:32:53;15.30;79.50
42663;DHT22;44330;51.360;6.686;2023-07-30T02:35:18;15.30;79.40
42663;DHT22;44330;51.360;6.686;2023-07-30T02:37:44;15.30;79.70
42663;DHT22;44330;51.360;6.686;2023-07-30T02:40:10;15.30;79.30
42663;DHT22;44330;51.360;6.686;2023-07-30T02:42:35;15.20;79.70
42663;DHT22;44330;51.360;6.686;2023-07-30T02:45:01;15.20;80.30
42663;DHT22;44330;51.360;6.686;2023-07-30T02:47:27;15.20;80.40
42663;DHT22;44330;51.360;6.686;2023-07-30T02:49:52;15.30;79.30
42663;DHT22;44330;51.360;6.686;2023-07-30T02:52:18;15.20;78.60
42663;DHT22;44330;51.360;6.686;2023-07-30T02:54:43;15.20;78.50
42663;DHT22;44330;51.360;6.686;2023-07-30T02:57:09;15.20;78.20
42663;DHT22;44330;51.360;6.686;2023-07-30T02:59:35;15.20;78.70
42663;DHT22;44330;51.360;6.686;2023-07-30T03:02:03;15.10;78.70
42663;DHT22;44330;51.360;6.686;2023-07-30T03:04:30;15.10;78.90
42663;DHT22;44330;51.360;6.686;2023-07-30T03:06:56;15.10;79.20
42663;DHT22;44330;51.360;6.686;2023-07-30T03:09:21;15.10;79.00
42663;DHT22;44330;51.360;6.686;2023-07-30T03:11:48;14.90;79.40
42663;DHT22;44330;51.360;6.686;2023-07-30T03:14:14;15.00;79.30
42663;DHT22;44330;51.360;6.686;2023-07-30T03:16:40;14.90;79.30
42663;DHT22;44330;51.360;6.686;2023-07-30T03:19:05;14.90;79.90
42663;DHT22;44330;51.360;6.686;2023-07-30T03:21:31;14.90;80.00
42663;DHT22;44330;51.360;6.686;2023-07-30T03:23:56;14.90;80.50
42663;DHT22;44330;51.360;6.686;2023-07-30T03:26:22;14.80;80.50
42663;DHT22;44330;51.360;6.686;2023-07-30T03:28:47;14.80;81.30
42663;DHT22;44330;51.360;6.686;2023-07-30T03:31:13;14.80;81.40
42663;DHT22;44330;51.360;6.686;2023-07-30T03:33:39;14.80;82.00
42663;DHT22;44330;51.360;6.686;2023-07-30T03:36:12;14.80;82.10
42663;DHT22;44330;51.360;6.686;2023-07-30T03:38:41;14.80;82.10
42663;DHT22;44330;51.360;6.686;2023-07-30T03:41:07;14.90;81.30
42663;DHT22;44330;51.360;6.686;2023-07-30T03:43:34;14.90;81.00
42663;DHT22;44330;51.360;6.686;2023-07-30T03:45:59;15.00;79.80
42663;DHT22;44330;51.360;6.686;2023-07-30T03:48:25;15.00;79.50
42663;DHT22;44330;51.360;6.686;2023-07-30T03:50:51;15.00;80.20
42663;DHT22;44330;51.360;6.686;2023-07-30T03:53:17;14.90;80.80
42663;DHT22;44330;51.360;6.686;2023-07-30T03:55:42;14.90;81.20
42663;DHT22;44330;51.360;6.686;2023-07-30T03:58:08;14.90;80.60
42663;DHT22;44330;51.360;6.686;2023-07-30T04:00:33;14.90;81.10
42663;DHT22;44330;51.360;6.686;2023-07-30T04:02:59;14.90;81.10
42663;DHT22;44330;51.360;6.686;2023-07-30T04:05:25;14.90;79.90
42663;DHT22;44330;51.360;6.686;2023-07-30T04:07:50;14.90;80.20
42663;DHT22;44330;51.360;6.686;2023-07-30T04:10:16;14.90;80.90
42663;DHT22;44330;51.360;6.686;2023-07-30T04:12:41;15.00;80.10
42663;DHT22;44330;51.360;6.686;2023-07-30T04:15:07;15.00;79.60
42663;DHT22;44330;51.360;6.686;2023-07-30T04:17:35;15.00;80.30
42663;DHT22;44330;51.360;6.686;2023-07-30T04:20:01;14.90;80.90
42663;DHT22;44330;51.360;6.686;2023-07-30T04:22:27;14.90;81.40
42663;DHT22;44330;51.360;6.686;2023-07-30T04:24:52;15.10;80.60
42663;DHT22;44330;51.360;6.686;2023-07-30T04:27:18;15.20;78.20
42663;DHT22;44330;51.360;6.686;2023-07-30T04:29:43;15.30;77.00
42663;DHT22;44330;51.360;6.686;2023-07-30T04:32:09;15.30;77.90
42663;DHT22;44330;51.360;6.686;2023-07-30T04:34:34;15.20;78.50
42663;DHT22;44330;51.360;6.686;2023-07-30T04:37:00;15.30;79.00
42663;DHT22;44330;51.360;6.686;2023-07-30T04:39:27;15.30;79.60
42663;DHT22;44330;51.360;6.686;2023-07-30T04:41:52;15.20;79.70
42663;DHT22;44330;51.360;6.686;2023-07-30T04:44:18;15.30;79.30
42663;DHT22;44330;51.360;6.686;2023-07-30T04:46:43;15.40;77.70
42663;DHT22;44330;51.360;6.686;2023-07-30T04:49:09;15.50;77.60
42663;DHT22;44330;51.360;6.686;2023-07-30T04:51:35;15.50;77.70
42663;DHT22;44330;51.360;6.686;2023-07-30T04:54:00;15.60;77.00
42663;DHT22;44330;51.360;6.686;2023-07-30T04:56:26;15.60;76.80
42663;DHT22;44330;51.360;6.686;2023-07-30T04:58:53;15.50;77.90
42663;DHT22;44330;51.360;6.686;2023-07-30T05:01:19;15.60;77.70
42663;DHT22;44330;51.360;6.686;2023-07-30T05:03:44;15.70;76.40
42663;DHT22;44330;51.360;6.686;2023-07-30T05:06:10;15.80;76.60
42663;DHT22;44330;51.360;6.686;2023-07-30T05:08:35;15.70;76.90
42663;DHT22;44330;51.360;6.686;2023-07-30T05:11:00;16.00;76.30
42663;DHT22;44330;51.360;6.686;2023-07-30T05:13:26;16.00;75.80
42663;DHT22;44330;51.360;6.686;2023-07-30T05:15:52;15.90;76.20
42663;DHT22;44330;51.360;6.686;2023-07-30T05:18:17;15.90;76.70
42663;DHT22;44330;51.360;6.686;2023-07-30T05:20:46;15.90;77.40
42663;DHT22;44330;51.360;6.686;2023-07-30T05:23:11;16.00;76.60
42663;DHT22;44330;51.360;6.686;2023-07-30T05:25:37;16.20;75.70
42663;DHT22;44330;51.360;6.686;2023-07-30T05:28:02;16.10;75.00
42663;DHT22;44330;51.360;6.686;2023-07-30T05:30:28;16.20;75.60
42663;DHT22;44330;51.360;6.686;2023-07-30T05:32:53;16.20;75.20
42663;DHT22;44330;51.360;6.686;2023-07-30T05:35:19;16.30;74.40
42663;DHT22;44330;51.360;6.686;2023-07-30T05:37:44;16.40;73.30
42663;DHT22;44330;51.360;6.686;2023-07-30T05:40:10;16.40;72.30
42663;DHT22;44330;51.360;6.686;2023-07-30T05:42:36;16.40;73.90
42663;DHT22;44330;51.360;6.686;2023-07-30T05:45:01;16.30;71.50
42663;DHT22;44330;51.360;6.686;2023-07-30T05:47:27;16.40;71.70
42663;DHT22;44330;51.360;6.686;2023-07-30T05:49:52;16.40;68.70
42663;DHT22;44330;51.360;6.686;2023-07-30T05:52:18;16.40;69.80
42663;DHT22;44330;51.360;6.686;2023-07-30T05:54:43;16.40;67.90
42663;DHT22;44330;51.360;6.686;2023-07-30T05:57:09;16.50;66.30
42663;DHT22;44330;51.360;6.686;2023-07-30T05:59:34;16.50;64.60
42663;DHT22;44330;51.360;6.686;2023-07-30T06:02:02;16.60;66.00
42663;DHT22;44330;51.360;6.686;2023-07-30T06:04:28;16.50;63.80
42663;DHT22;44330;51.360;6.686;2023-07-30T06:06:54;16.60;62.40
42663;DHT22;44330;51.360;6.686;2023-07-30T06:09:20;16.60;61.80
42663;DHT22;44330;51.360;6.686;2023-07-30T06:11:45;16.60;61.70
42663;DHT22;44330;51.360;6.686;2023-07-30T06:14:11;16.60;61.40
42663;DHT22;44330;51.360;6.686;2023-07-30T06:16:36;16.70;62.20
42663;DHT22;44330;51.360;6.686;2023-07-30T06:19:02;16.60;60.10
42663;DHT22;44330;51.360;6.686;2023-07-30T06:21:27;16.70;62.60
42663;DHT22;44330;51.360;6.686;2023-07-30T06:23:53;16.70;59.10
42663;DHT22;44330;51.360;6.686;2023-07-30T06:26:18;16.80;58.90
42663;DHT22;44330;51.360;6.686;2023-07-30T06:28:44;16.80;57.30
42663;DHT22;44330;51.360;6.686;2023-07-30T06:31:10;16.80;59.10
42663;DHT22;44330;51.360;6.686;2023-07-30T06:33:35;16.90;56.30
42663;DHT22;44330;51.360;6.686;2023-07-30T06:36:03;16.90;56.00
42663;DHT22;44330;51.360;6.686;2023-07-30T06:38:28;16.90;58.30
42663;DHT22;44330;51.360;6.686;2023-07-30T06:40:54;17.00;56.10
42663;DHT22;44330;51.360;6.686;2023-07-30T06:43:21;17.10;56.00
42663;DHT22;44330;51.360;6.686;2023-07-30T06:45:47;17.20;54.70
42663;DHT22;44330;51.360;6.686;2023-07-30T06:48:13;17.20;55.20
42663;DHT22;44330;51.360;6.686;2023-07-30T06:50:40;17.40;51.30
42663;DHT22;44330;51.360;6.686;2023-07-30T06:53:06;17.40;51.30
42663;DHT22;44330;51.360;6.686;2023-07-30T06:55:32;17.40;51.70
42663;DHT22;44330;51.360;6.686;2023-07-30T06:57:58;17.30;53.50
42663;DHT22;44330;51.360;6.686;2023-07-30T07:00:24;17.30;55.30
42663;DHT22;44330;51.360;6.686;2023-07-30T07:02:50;17.30;51.60
42663;DHT22;44330;51.360;6.686;2023-07-30T07:05:16;17.30;55.30
42663;DHT22;44330;51.360;6.686;2023-07-30T07:07:45;17.30;55.80
42663;DHT22;44330;51.360;6.686;2023-07-30T07:10:10;17.40;57.90
42663;DHT22;44330;51.360;6.686;2023-07-30T07:12:37;17.50;50.20
42663;DHT22;44330;51.360;6.686;2023-07-30T07:15:04;17.60;48.10
42663;DHT22;44330;51.360;6.686;2023-07-30T07:17:29;17.70;47.20
42663;DHT22;44330;51.360;6.686;2023-07-30T07:19:55;17.70;47.20
42663;DHT22;44330;51.360;6.686;2023-07-30T07:22:21;17.70;48.40
42663;DHT22;44330;51.360;6.686;2023-07-30T07:24:46;17.80;47.70
42663;DHT22;44330;51.360;6.686;2023-07-30T07:27:12;17.90;49.00
42663;DHT22;44330;51.360;6.686;2023-07-30T07:29:37;17.90;44.10
42663;DHT22;44330;51.360;6.686;2023-07-30T07:32:03;17.90;44.70
42663;DHT22;44330;51.360;6.686;2023-07-30T07:34:29;17.90;44.30
42663;DHT22;44330;51.360;6.686;2023-07-30T07:36:54;18.00;47.20
42663;DHT22;44330;51.360;6.686;2023-07-30T07:39:20;18.00;43.70
42663;DHT22;44330;51.360;6.686;2023-07-30T07:41:46;18.10;42.70
42663;DHT22;44330;51.360;6.686;2023-07-30T07:44:11;18.30;41.30
42663;DHT22;44330;51.360;6.686;2023-07-30T07:46:37;18.20;37.80
42663;DHT22;44330;51.360;6.686;2023-07-30T07:49:02;18.20;39.00
42663;DHT22;44330;51.360;6.686;2023-07-30T07:51:28;18.30;40.80
42663;DHT22;44330;51.360;6.686;2023-07-30T07:53:53;18.30;42.80
42663;DHT22;44330;51.360;6.686;2023-07-30T07:56:19;18.40;36.30
42663;DHT22;44330;51.360;6.686;2023-07-30T07:58:45;18.40;37.00
42663;DHT22;44330;51.360;6.686;2023-07-30T08:01:10;18.40;30.90
42663;DHT22;44330;51.360;6.686;2023-07-30T08:03:36;18.30;32.10
42663;DHT22;44330;51.360;6.686;2023-07-30T08:06:01;18.30;39.60
42663;DHT22;44330;51.360;6.686;2023-07-30T08:08:27;18.30;33.40
42663;DHT22;44330;51.360;6.686;2023-07-30T08:10:53;18.40;37.60
42663;DHT22;44330;51.360;6.686;2023-07-30T08:13:19;18.40;36.70
42663;DHT22;44330;51.360;6.686;2023-07-30T08:15:44;18.40;35.70
42663;DHT22;44330;51.360;6.686;2023-07-30T08:18:10;18.40;36.70
42663;DHT22;44330;51.360;6.686;2023-07-30T08:20:36;18.50;39.80
42663;DHT22;44330;51.360;6.686;2023-07-30T08:23:02;18.50;31.70
42663;DHT22;44330;51.360;6.686;2023-07-30T08:25:27;18.60;30.00
42663;DHT22;44330;51.360;6.686;2023-07-30T08:27:53;18.60;39.50
42663;DHT22;44330;51.360;6.686;2023-07-30T08:30:18;18.70;38.00
42663;DHT22;44330;51.360;6.686;2023-07-30T08:32:44;18.80;30.60
42663;DHT22;44330;51.360;6.686;2023-07-30T08:35:10;18.80;30.30
42663;DHT22;44330;51.360;6.686;2023-07-30T08:37:36;18.80;27.80
42663;DHT22;44330;51.360;6.686;2023-07-30T08:40:02;18.80;28.70
42663;DHT22;44330;51.360;6.686;2023-07-30T08:42:28;18.80;25.40
42663;DHT22;44330;51.360;6.686;2023-07-30T08:44:54;18.70;28.60
42663;DHT22;44330;51.360;6.686;2023-07-30T08:47:19;18.80;30.00
42663;DHT22;44330;51.360;6.686;2023-07-30T08:49:45;18.90;31.10
42663;DHT22;44330;51.360;6.686;2023-07-30T08:52:11;18.90;27.40
42663;DHT22;44330;51.360;6.686;2023-07-30T08:54:38;19.20;25.00
42663;DHT22;44330;51.360;6.686;2023-07-30T08:57:04;19.30;19.00
42663;DHT22;44330;51.360;6.686;2023-07-30T08:59:39;19.30;10.10
42663;DHT22;44330;51.360;6.686;2023-07-30T09:02:13;19.30;16.00
42663;DHT22;44330;51.360;6.686;2023-07-30T09:04:44;19.50;13.00
42663;DHT22;44330;51.360;6.686;2023-07-30T09:07:13;19.60;6.10
42663;DHT22;44330;51.360;6.686;2023-07-30T09:09:39;19.80;7.30
42663;DHT22;44330;51.360;6.686;2023-07-30T09:12:13;19.80;1.00
42663;DHT22;44330;51.360;6.686;2023-07-30T09:14:39;19.80;1.00
42663;DHT22;44330;51.360;6.686;2023-07-30T09:17:05;19.80;1.00
42663;DHT22;44330;51.360;6.686;2023-07-30T09:19:35;20.00;1.00
42663;DHT22;44330;51.360;6.686;2023-07-30T09:22:05;20.30;1.00
42663;DHT22;44330;51.360;6.686;2023-07-30T09:24:30;20.50;1.00
42663;DHT22;44330;51.360;6.686;2023-07-30T09:27:02;20.60;1.00
42663;DHT22;44330;51.360;6.686;2023-07-30T09:29:28;20.80;1.00
42663;DHT22;44330;51.360;6.686;2023-07-30T09:31:54;21.10;1.00
42663;DHT22;44330;51.360;6.686;2023-07-30T09:34:22;21.30;99.90
42663;DHT22;44330;51.360;6.686;2023-07-30T09:36:50;21.30;99.90
42663;DHT22;44330;51.360;6.686;2023-07-30T09:39:18;21.40;99.90
42663;DHT22;44330;51.360;6.686;2023-07-30T09:41:45;21.50;99.90
42663;DHT22;44330;51.360;6.686;2023-07-30T09:44:11;21.40;99.90
42663;DHT22;44330;51.360;6.686;2023-07-30T09:46:45;21.40;99.90
42663;DHT22;44330;51.360;6.686;2023-07-30T09:49:11;21.40;99.90
42663;DHT22;44330;51.360;6.686;2023-07-30T09:51:40;21.50;99.90
42663;DHT22;44330;51.360;6.686;2023-07-30T09:54:11;21.70;99.90
42663;DHT22;44330;51.360;6.686;2023-07-30T09:56:38;21.70;99.90
42663;DHT22;44330;51.360;6.686;2023-07-30T09:59:05;21.60;99.90
42663;DHT22;44330;51.360;6.686;2023-07-30T10:01:31;21.80;99.90
42663;DHT22;44330;51.360;6.686;2023-07-30T10:03:58;22.30;99.90
42663;DHT22;44330;51.360;6.686;2023-07-30T10:06:25;22.50;1.00
42663;DHT22;44330;51.360;6.686;2023-07-30T10:08:53;22.40;99.90
42663;DHT22;44330;51.360;6.686;2023-07-30T10:11:19;22.30;1.90
42663;DHT22;44330;51.360;6.686;2023-07-30T10:13:46;22.10;99.90
42663;DHT22;44330;51.360;6.686;2023-07-30T10:16:12;22.00;1.00
42663;DHT22;44330;51.360;6.686;2023-07-30T10:18:42;21.90;91.60
42663;DHT22;44330;51.360;6.686;2023-07-30T10:21:09;21.90;99.90
42663;DHT22;44330;51.360;6.686;2023-07-30T10:23:36;21.90;46.60
42663;DHT22;44330;51.360;6.686;2023-07-30T10:26:10;21.80;44.70
42663;DHT22;44330;51.360;6.686;2023-07-30T10:28:36;22.00;96.90
42663;DHT22;44330;51.360;6.686;2023-07-30T10:31:08;22.20;99.90
42663;DHT22;44330;51.360;6.686;2023-07-30T10:33:51;22.40;99.90
42663;DHT22;44330;51.360;6.686;2023-07-30T10:36:42;22.70;99.90
42663;DHT22;44330;51.360;6.686;2023-07-30T10:39:41;23.10;93.10
42663;DHT22;44330;51.360;6.686;2023-07-30T10:42:06;23.30;1.00
42663;DHT22;44330;51.360;6.686;2023-07-30T10:44:33;23.30;99.90
42663;DHT22;44330;51.360;6.686;2023-07-30T10:47:01;22.90;1.00
42663;DHT22;44330;51.360;6.686;2023-07-30T10:49:27;22.90;16.10
42663;DHT22;44330;51.360;6.686;2023-07-30T10:51:55;22.80;1.00
42663;DHT22;44330;51.360;6.686;2023-07-30T10:54:21;22.80;1.00
42663;DHT22;44330;51.360;6.686;2023-07-30T10:56:47;23.00;99.90
42663;DHT22;44330;51.360;6.686;2023-07-30T10:59:14;23.10;99.90
42663;DHT22;44330;51.360;6.686;2023-07-30T11:01:44;23.20;1.00
42663;DHT22;44330;51.360;6.686;2023-07-30T11:04:18;23.40;99.90
42663;DHT22;44330;51.360;6.686;2023-07-30T11:06:47;23.70;99.90
42663;DHT22;44330;51.360;6.686;2023-07-30T11:09:27;23.70;99.90
42663;DHT22;44330;51.360;6.686;2023-07-30T11:11:53;23.70;99.90
42663;DHT22;44330;51.360;6.686;2023-07-30T11:14:21;23.70;99.90
42663;DHT22;44330;51.360;6.686;2023-07-30T11:16:57;23.80;99.90
42663;DHT22;44330;51.360;6.686;2023-07-30T11:19:24;24.00;99.90
42663;DHT22;44330;51.360;6.686;2023-07-30T11:21:51;24.10;99.90
42663;DHT22;44330;51.360;6.686;2023-07-30T11:24:17;24.20;99.90
42663;DHT22;44330;51.360;6.686;2023-07-30T11:26:43;24.00;1.00
42663;DHT22;44330;51.360;6.686;2023-07-30T11:29:18;23.80;99.90
42663;DHT22;44330;51.360;6.686;2023-07-30T11:31:45;23.60;99.90
42663;DHT22;44330;51.360;6.686;2023-07-30T11:34:12;23.50;1.00
42663;DHT22;44330;51.360;6.686;2023-07-30T11:36:38;23.70;99.90
42663;DHT22;44330;51.360;6.686;2023-07-30T11:39:05;23.80;41.30
42663;DHT22;44330;51.360;6.686;2023-07-30T11:41:31;23.80;99.90
42663;DHT22;44330;51.360;6.686;2023-07-30T11:43:56;23.90;1.00
42663;DHT22;44330;51.360;6.686;2023-07-30T11:46:22;23.70;77.30
42663;DHT22;44330;51.360;6.686;2023-07-30T11:48:49;23.30;1.00
42663;DHT22;44330;51.360;6.686;2023-07-30T11:51:26;23.40;21.10
42663;DHT22;44330;51.360;6.686;2023-07-30T11:53:56;23.60;99.90
42663;DHT22;44330;51.360;6.686;2023-07-30T11:56:27;23.80;99.90
42663;DHT22;44330;51.360;6.686;2023-07-30T11:58:57;23.70;99.90
42663;DHT22;44330;51.360;6.686;2023-07-30T12:01:26;23.60;74.90
42663;DHT22;44330;51.360;6.686;2023-07-30T12:03:56;23.60;32.90
42663;DHT22;44330;51.360;6.686;2023-07-30T12:06:22;23.60;99.90
42663;DHT22;44330;51.360;6.686;2023-07-30T12:08:51;23.70;99.90
42663;DHT22;44330;51.360;6.686;2023-07-30T12:11:18;23.60;1.00
42663;DHT22;44330;51.360;6.686;2023-07-30T12:13:47;23.60;99.90
42663;DHT22;44330;51.360;6.686;2023-07-30T12:16:13;23.70;99.90
42663;DHT22;44330;51.360;6.686;2023-07-30T12:18:39;23.80;11.90
42663;DHT22;44330;51.360;6.686;2023-07-30T12:21:06;23.60;57.10
42663;DHT22;44330;51.360;6.686;2023-07-30T12:23:36;23.50;99.90
42663;DHT22;44330;51.360;6.686;2023-07-30T12:26:02;23.50;7.00
42663;DHT22;44330;51.360;6.686;2023-07-30T12:28:34;23.50;1.00
42663;DHT22;44330;51.360;6.686;2023-07-30T12:31:00;23.20;99.90
42663;DHT22;44330;51.360;6.686;2023-07-30T12:33:26;23.10;99.90
42663;DHT22;44330;51.360;6.686;2023-07-30T12:35:54;23.30;8.70
42663;DHT22;44330;51.360;6.686;2023-07-30T12:38:20;23.40;99.90
42663;DHT22;44330;51.360;6.686;2023-07-30T12:40:46;23.60;99.90
42663;DHT22;44330;51.360;6.686;2023-07-30T12:43:11;23.90;99.90
42663;DHT22;44330;51.360;6.686;2023-07-30T12:45:37;24.10;99.90
42663;DHT22;44330;51.360;6.686;2023-07-30T12:48:04;24.10;1.00
42663;DHT22;44330;51.360;6.686;2023-07-30T12:50:30;23.90;99.90
42663;DHT22;44330;51.360;6.686;2023-07-30T12:52:55;23.70;78.20
42663;DHT22;44330;51.360;6.686;2023-07-30T12:55:21;23.70;99.90
42663;DHT22;44330;51.360;6.686;2023-07-30T12:57:46;23.80;99.90
42663;DHT22;44330;51.360;6.686;2023-07-30T13:00:12;24.10;62.20
42663;DHT22;44330;51.360;6.686;2023-07-30T13:02:38;24.30;79.40
42663;DHT22;44330;51.360;6.686;2023-07-30T13:05:04;24.30;58.80
42663;DHT22;44330;51.360;6.686;2023-07-30T13:07:30;24.10;21.00
42663;DHT22;44330;51.360;6.686;2023-07-30T13:10:06;24.00;31.10
42663;DHT22;44330;51.360;6.686;2023-07-30T13:12:33;24.20;58.10
42663;DHT22;44330;51.360;6.686;2023-07-30T13:14:59;24.10;1.00
42663;DHT22;44330;51.360;6.686;2023-07-30T13:17:25;23.80;1.00
42663;DHT22;44330;51.360;6.686;2023-07-30T13:19:50;23.30;4.90
42663;DHT22;44330;51.360;6.686;2023-07-30T13:22:16;23.10;23.80
42663;DHT22;44330;51.360;6.686;2023-07-30T13:24:42;23.30;90.60
42663;DHT22;44330;51.360;6.686;2023-07-30T13:27:07;23.60;36.20
42663;DHT22;44330;51.360;6.686;2023-07-30T13:29:33;23.50;17.60
42663;DHT22;44330;51.360;6.686;2023-07-30T13:31:59;23.50;10.00
42663;DHT22;44330;51.360;6.686;2023-07-30T13:34:24;23.40;14.60
42663;DHT22;44330;51.360;6.686;2023-07-30T13:36:50;23.50;28.20
42663;DHT22;44330;51.360;6.686;2023-07-30T13:39:16;23.70;4.50
42663;DHT22;44330;51.360;6.686;2023-07-30T13:41:42;23.70;1.00
42663;DHT22;44330;51.360;6.686;2023-07-30T13:44:08;23.50;9.10
42663;DHT22;44330;51.360;6.686;2023-07-30T13:46:40;23.30;7.20
42663;DHT22;44330;51.360;6.686;2023-07-30T13:49:07;23.20;73.10
42663;DHT22;44330;51.360;6.686;2023-07-30T13:51:33;23.00;63.00
42663;DHT22;44330;51.360;6.686;2023-07-30T13:53:59;22.90;72.30
42663;DHT22;44330;51.360;6.686;2023-07-30T13:56:26;22.90;58.60
42663;DHT22;44330;51.360;6.686;2023-07-30T13:58:52;22.70;72.10
42663;DHT22;44330;51.360;6.686;2023-07-30T14:01:17;22.60;99.90
42663;DHT22;44330;51.360;6.686;2023-07-30T14:03:43;22.50;99.90
42663;DHT22;44330;51.360;6.686;2023-07-30T14:06:10;22.40;1.00
42663;DHT22;44330;51.360;6.686;2023-07-30T14:08:35;22.60;99.90
42663;DHT22;44330;51.360;6.686;2023-07-30T14:11:01;22.70;99.90
42663;DHT22;44330;51.360;6.686;2023-07-30T14:13:26;23.00;99.90
42663;DHT22;44330;51.360;6.686;2023-07-30T14:15:52;23.30;99.90
42663;DHT22;44330;51.360;6.686;2023-07-30T14:18:18;23.70;99.90
42663;DHT22;44330;51.360;6.686;2023-07-30T14:20:43;23.90;99.90
42663;DHT22;44330;51.360;6.686;2023-07-30T14:23:09;24.10;99.90
42663;DHT22;44330;51.360;6.686;2023-07-30T14:25:36;24.10;99.90
42663;DHT22;44330;51.360;6.686;2023-07-30T14:28:02;24.10;99.90
42663;DHT22;44330;51.360;6.686;2023-07-30T14:30:28;24.00;99.90
42663;DHT22;44330;51.360;6.686;2023-07-30T14:32:54;23.90;99.90
42663;DHT22;44330;51.360;6.686;2023-07-30T14:35:20;23.70;99.90
42663;DHT22;44330;51.360;6.686;2023-07-30T14:37:45;23.80;92.40
42663;DHT22;44330;51.360;6.686;2023-07-30T14:40:11;23.80;79.60
42663;DHT22;44330;51.360;6.686;2023-07-30T14:42:36;23.70;44.10
42663;DHT22;44330;51.360;6.686;2023-07-30T14:45:02;23.60;81.70
42663;DHT22;44330;51.360;6.686;2023-07-30T14:47:28;23.80;98.30
42663;DHT22;44330;51.360;6.686;2023-07-30T14:49:54;24.00;85.10
42663;DHT22;44330;51.360;6.686;2023-07-30T14:52:21;23.90;63.10
42663;DHT22;44330;51.360;6.686;2023-07-30T14:54:46;23.90;72.20
42663;DHT22;44330;51.360;6.686;2023-07-30T14:57:12;23.80;73.30
42663;DHT22;44330;51.360;6.686;2023-07-30T14:59:38;23.80;67.10
42663;DHT22;44330;51.360;6.686;2023-07-30T15:02:05;23.70;79.20
42663;DHT22;44330;51.360;6.686;2023-07-30T15:04:31;23.80;98.50
42663;DHT22;44330;51.360;6.686;2023-07-30T15:06:56;23.90;55.30
42663;DHT22;44330;51.360;6.686;2023-07-30T15:09:22;23.90;83.40
42663;DHT22;44330;51.360;6.686;2023-07-30T15:11:48;23.80;56.40
42663;DHT22;44330;51.360;6.686;2023-07-30T15:14:14;23.90;91.20
42663;DHT22;44330;51.360;6.686;2023-07-30T15:16:39;23.70;51.50
42663;DHT22;44330;51.360;6.686;2023-07-30T15:19:05;23.70;63.10
42663;DHT22;44330;51.360;6.686;2023-07-30T15:21:31;23.50;67.00
42663;DHT22;44330;51.360;6.686;2023-07-30T15:23:56;23.60;26.30
42663;DHT22;44330;51.360;6.686;2023-07-30T15:26:24;23.60;1.00
42663;DHT22;44330;51.360;6.686;2023-07-30T15:28:50;23.60;1.00